Time;durP1;ratioP1;P1;durP2;ratioP2;P2;SDS_P1;SDS_P2;PMS_P1;PMS_P2;Temp;Humidity;BMP_temperature;BMP_pressure;BME280_temperature;BME280_humidity;BME280_pressure;Samples;Min_cycle;Max_cycle;Signal;HPM_P1;HPM_P2
2022/01/28 00:02:15;;;;;;;26.00;14.15;;;;;;;-5.68;100.00;101044.59;1668080;85;21568;-94
2022/01/28 00:04:33;;;;;;;26.77;13.05;;;;;;;-5.65;100.00;101036.99;1668183;85;21090;-94
2022/01/28 00:07:00;;;;;;;25.92;14.68;;;;;;;-5.62;100.00;101038.23;1671169;85;21076;-92
2022/01/28 00:09:28;;;;;;;27.02;14.25;;;;;;;-5.62;100.00;101031.89;1649225;85;20959;-92
2022/01/28 00:11:55;;;;;;;28.65;15.25;;;;;;;-5.59;100.00;101036.98;1649583;85;21082;-92
2022/01/28 00:14:30;;;;;;;27.77;14.53;;;;;;;-5.56;100.00;101038.22;1670763;85;21072;-92
2022/01/28 00:17:32;;;;;;;25.00;13.68;;;;;;;-5.56;100.00;101031.88;1670866;85;21161;-93
2022/01/28 00:38:38;;;;;;;27.27;13.93;;;;;;;-5.58;100.00;100996.80;1670904;85;21140;-93
2022/01/28 00:41:04;;;;;;;28.62;15.50;;;;;;;-5.58;100.00;100992.98;1669694;84;21102;-95
2022/01/28 00:43:32;;;;;;;22.82;13.85;;;;;;;-5.58;100.00;100987.91;1673161;85;21023;-93
2022/01/28 00:46:00;;;;;;;30.15;15.98;;;;;;;-5.55;100.00;100985.34;1665304;84;21020;-92
2022/01/28 00:48:27;;;;;;;27.82;14.73;;;;;;;-5.53;100.00;100984.93;1683938;84;21537;-91
2022/01/28 00:50:55;;;;;;;26.37;14.90;;;;;;;-5.53;100.00;100977.31;1725796;83;21967;-92
2022/01/28 00:53:22;;;;;;;27.17;15.05;;;;;;;-5.53;100.00;100965.89;1726200;83;21063;-92
2022/01/28 00:55:49;;;;;;;29.77;16.25;;;;;;;-5.52;100.00;100959.11;1726053;83;21626;-91
2022/01/28 00:58:16;;;;;;;26.80;15.28;;;;;;;-5.52;100.00;100957.84;1726169;83;21003;-94
2022/01/28 01:00:43;;;;;;;26.42;15.83;;;;;;;-5.51;100.00;100957.86;1706409;82;21101;-95
2022/01/28 01:03:10;;;;;;;28.70;15.93;;;;;;;-5.49;100.00;100955.30;1724128;82;21134;-93
2022/01/28 01:05:38;;;;;;;30.85;15.88;;;;;;;-5.47;100.00;100953.61;1649813;85;21034;-94
2022/01/28 01:08:06;;;;;;;33.73;18.17;;;;;;;-5.47;100.00;100954.89;1670638;85;21035;-92
2022/01/28 01:10:35;;;;;;;33.85;17.48;;;;;;;-5.47;100.00;100948.10;1670822;84;21458;-92
2022/01/28 01:13:03;;;;;;;32.67;18.27;;;;;;;-5.46;100.00;100952.33;1649894;85;21042;-89
2022/01/28 01:15:36;;;;;;;35.43;18.27;;;;;;;-5.45;100.00;100946.41;1683007;83;21151;-95
2022/01/28 01:23:16;;;;;;;35.38;20.43;;;;;;;-5.41;100.00;100938.36;1723473;82;21110;-95
2022/01/28 01:25:57;;;;;;;34.00;19.55;;;;;;;-5.41;100.00;100939.63;1668331;85;21134;-95
2022/01/28 01:28:21;;;;;;;37.48;18.40;;;;;;;-5.41;100.00;100934.55;1668830;85;21165;-94
2022/01/28 01:30:48;;;;;;;37.30;21.30;;;;;;;-5.41;100.00;100925.23;1677056;84;21042;-91
2022/01/28 01:33:18;;;;;;;33.85;19.37;;;;;;;-5.39;100.00;100930.31;1686822;83;21063;-93
2022/01/28 01:35:46;;;;;;;;;;;;;;;-5.39;100.00;100924.80;1707480;82;21039;-92
2022/01/28 01:38:13;;;;;;;35.92;19.15;;;;;;;-5.39;100.00;100925.24;1725115;83;20211;-94
2022/01/28 01:40:46;;;;;;;35.55;18.37;;;;;;;-5.40;100.00;100918.03;1725099;82;21136;-94
2022/01/28 01:43:16;;;;;;;42.17;20.00;;;;;;;-5.39;100.00;100916.36;1701217;83;21047;-95
2022/01/28 01:46:07;;;;;;;37.15;20.17;;;;;;;-5.39;100.00;100917.19;1721926;82;21089;-95
2022/01/28 01:53:55;;;;;;;38.88;20.72;;;;;;;-5.36;100.00;100916.33;1724777;82;21188;-95
2022/01/28 01:56:23;;;;;;;40.03;20.17;;;;;;;-5.33;100.00;100911.24;1721789;83;21043;-92
2022/01/28 01:58:51;;;;;;;37.05;19.87;;;;;;;-5.30;100.00;100915.05;1725202;82;21058;-92
2022/01/28 02:01:18;;;;;;;37.45;19.73;;;;;;;-5.28;100.00;100907.42;1704389;83;21539;-96
2022/01/28 02:03:44;;;;;;;41.20;21.07;;;;;;;-5.26;100.00;100906.55;1725973;82;21011;-95
2022/01/28 02:06:14;;;;;;;39.03;21.50;;;;;;;-5.24;100.00;100913.74;1732849;82;21086;-93
2022/01/28 02:08:42;;;;;;;36.70;19.60;;;;;;;-5.20;100.00;100910.77;1667132;85;21051;-91
2022/01/28 02:11:09;;;;;;;33.33;17.25;;;;;;;-5.18;100.00;100909.47;1670553;84;21138;-91
2022/01/28 02:13:40;;;;;;;40.10;20.90;;;;;;;-5.16;100.00;100903.53;1670613;84;21030;-94
2022/01/28 02:16:09;;;;;;;36.85;19.45;;;;;;;-5.10;100.00;100897.58;1670598;85;21490;-93
2022/01/28 02:18:37;;;;;;;42.10;22.10;;;;;;;-5.08;100.00;100902.23;1679469;84;21191;-94
2022/01/28 02:21:07;;;;;;;40.60;21.20;;;;;;;-5.08;100.00;100890.36;1675847;84;21014;-93
2022/01/28 02:23:34;;;;;;;40.58;20.52;;;;;;;-5.08;100.00;100889.09;1674329;84;21634;-93
2022/01/28 02:26:05;;;;;;;37.25;20.65;;;;;;;-5.07;100.00;100893.77;1675920;84;21042;-95
2022/01/28 02:28:37;;;;;;;39.15;21.02;;;;;;;-5.07;100.00;100888.69;1675985;84;21033;-96
2022/01/28 02:31:04;;;;;;;43.55;20.95;;;;;;;-5.08;100.00;100889.09;1673574;84;21167;-94
2022/01/28 02:33:32;;;;;;;34.15;20.95;;;;;;;-5.07;100.00;100888.24;1676293;84;21122;-92
2022/01/28 02:36:04;;;;;;;41.45;21.55;;;;;;;-5.05;100.00;100883.59;1675855;84;21607;-92
2022/01/28 02:38:29;;;;;;;38.67;20.62;;;;;;;-5.08;100.00;100881.48;1673492;84;21536;-92
2022/01/28 02:40:59;;;;;;;42.05;23.00;;;;;;;-5.08;100.00;100880.20;1675727;84;21578;-93
2022/01/28 02:43:41;;;;;;;39.73;21.90;;;;;;;-5.07;100.00;100875.98;1658826;85;21010;-94
2022/01/28 02:46:02;;;;;;;42.43;21.60;;;;;;;-5.09;100.00;100876.41;1670805;84;21065;-94
2022/01/28 02:48:28;;;;;;;39.90;22.07;;;;;;;-5.12;100.00;100869.66;1673194;84;21116;-91
2022/01/28 02:51:15;;;;;;;42.23;22.07;;;;;;;-5.13;100.00;100869.24;1673653;84;21014;-92
2022/01/28 02:53:51;;;;;;;42.15;22.15;;;;;;;-5.10;100.00;100870.50;1675446;84;21859;-93
2022/01/28 02:56:19;;;;;;;39.08;19.85;;;;;;;-5.05;100.00;100863.27;1675119;83;21116;-94
2022/01/28 02:58:46;;;;;;;39.35;21.48;;;;;;;-5.05;100.00;100861.59;1657858;85;21076;-91
2022/01/28 03:01:16;;;;;;;43.75;22.82;;;;;;;-5.04;100.00;100858.61;1660137;84;21058;-93
2022/01/28 03:03:46;;;;;;;37.30;20.95;;;;;;;-5.01;100.00;100858.60;1673246;84;21055;-95
2022/01/28 03:06:16;;;;;;;37.65;21.05;;;;;;;-5.00;100.00;100859.85;1661743;84;21038;-94
2022/01/28 03:08:52;;;;;;;41.73;21.00;;;;;;;-4.98;100.00;100853.48;1678237;84;21120;-92
2022/01/28 03:16:20;;;;;;;38.02;20.45;;;;;;;-4.94;100.00;100850.08;1664614;85;21057;-94
2022/01/28 03:21:23;;;;;;;43.25;22.20;;;;;;;-4.97;100.00;100855.17;1663182;84;21074;-94
2022/01/28 03:23:47;;;;;;;42.75;21.90;;;;;;;-4.95;100.00;100856.02;1675861;84;21077;-93
2022/01/28 03:26:15;;;;;;;38.70;20.60;;;;;;;-4.94;100.00;100858.97;1678682;84;21101;-95
2022/01/28 03:28:43;;;;;;;41.63;21.20;;;;;;;-4.92;100.00;100858.52;1679591;85;21043;-93
2022/01/28 03:31:10;;;;;;;42.67;22.07;;;;;;;-4.90;100.00;100851.73;1670453;84;21148;-95
2022/01/28 03:33:37;;;;;;;46.80;23.62;;;;;;;-4.86;100.00;100843.66;1665001;85;21162;-92
2022/01/28 03:36:08;;;;;;;43.92;22.07;;;;;;;-4.85;100.00;100837.31;1686216;84;21094;-91
2022/01/28 03:38:36;;;;;;;42.87;21.07;;;;;;;-4.81;100.00;100840.23;1701822;82;21070;-92
2022/01/28 03:41:06;;;;;;;42.45;20.95;;;;;;;-4.79;100.00;100831.31;1706294;82;21023;-91
2022/01/28 03:43:33;;;;;;;40.08;20.80;;;;;;;-4.77;100.00;100827.91;1732151;81;21042;-90
2022/01/28 03:46:00;;;;;;;49.93;24.30;;;;;;;-4.74;100.00;100824.52;1731943;82;21539;-91
2022/01/28 03:48:27;;;;;;;42.78;21.42;;;;;;;-4.71;100.00;100820.66;1731687;81;21054;-91
2022/01/28 03:50:54;;;;;;;44.95;24.02;;;;;;;-4.72;100.00;100821.52;1732106;81;21073;-90
2022/01/28 03:53:21;;;;;;;49.10;24.18;;;;;;;-4.71;100.00;100812.21;1706342;82;21580;-91
2022/01/28 03:55:51;;;;;;;45.40;23.47;;;;;;;-4.72;100.00;100816.43;1705557;82;21034;-92
2022/01/28 03:58:17;;;;;;;44.38;22.25;;;;;;;-4.72;100.00;100820.24;1705507;82;21112;-91
2022/01/28 04:00:45;;;;;;;45.83;22.32;;;;;;;-4.72;100.00;100815.61;1705569;82;21049;-92
2022/01/28 04:13:47;;;;;;;46.30;22.30;;;;;;;-4.68;100.00;100823.19;1725190;82;21031;-93
2022/01/28 04:18:49;;;;;;;39.55;22.00;;;;;;;-4.70;100.00;100824.06;1696373;83;21139;-92
2022/01/28 04:21:16;;;;;;;42.45;22.30;;;;;;;-4.70;100.00;100824.06;1676012;83;21077;-92
2022/01/28 04:23:44;;;;;;;44.73;23.38;;;;;;;-4.70;100.00;100824.89;1675337;83;21141;-92
2022/01/28 04:26:11;;;;;;;40.48;22.70;;;;;;;-4.68;100.00;100829.95;1626162;85;21090;-92
2022/01/28 04:28:41;;;;;;;40.58;21.40;;;;;;;-4.68;100.00;100828.69;1617001;87;21074;-95
2022/01/28 04:31:07;;;;;;;39.73;22.07;;;;;;;-4.67;100.00;100830.37;1617081;88;22055;-94
2022/01/28 04:33:34;;;;;;;48.38;24.20;;;;;;;-4.67;100.00;100829.96;1617189;88;21165;-94
2022/01/28 04:36:02;;;;;;;42.90;22.00;;;;;;;-4.68;100.00;100822.33;1624039;86;21659;-92
2022/01/28 04:38:44;;;;;;;54.08;30.90;;;;;;;-4.70;100.00;100824.89;1635940;86;21057;-91
2022/01/28 04:43:45;;;;;;;56.48;28.57;;;;;;;-4.69;100.00;100825.75;1655337;85;21069;-91
2022/01/28 04:46:20;;;;;;;47.90;25.02;;;;;;;-4.66;100.00;100825.70;1634092;86;21614;-85
2022/01/28 04:48:48;;;;;;;40.88;21.60;;;;;;;-4.60;100.00;100825.64;1648621;86;21173;-84
2022/01/28 04:51:32;;;;;;;39.78;21.95;;;;;;;-4.54;100.00;100816.72;1648228;86;21532;-83
2022/01/28 04:54:01;;;;;;;41.63;22.32;;;;;;;-4.54;100.00;100815.45;1650008;85;21601;-84
2022/01/28 04:58:57;;;;;;;44.63;23.30;;;;;;;-4.53;100.00;100820.09;1632355;86;21092;-85
2022/01/28 05:04:09;;;;;;;46.42;22.62;;;;;;;-4.53;100.00;100820.95;1631315;86;21044;-94
2022/01/28 05:27:29;;;;;;;34.35;19.07;;;;;;;-4.44;100.00;100792.87;1575189;89;21885;-91
2022/01/28 05:29:56;;;;;;;39.48;19.65;;;;;;;-4.42;100.00;100790.34;1596163;88;21769;-91
2022/01/28 05:32:23;;;;;;;38.30;19.87;;;;;;;-4.44;100.00;100790.33;1602305;87;21077;-90
2022/01/28 05:34:51;;;;;;;40.85;21.00;;;;;;;-4.48;100.00;100789.96;1596646;87;21084;-90
2022/01/28 05:37:18;;;;;;;43.50;21.10;;;;;;;-4.50;100.00;100786.58;1581080;89;21160;-90
2022/01/28 05:39:45;;;;;;;35.80;19.00;;;;;;;-4.48;100.00;100786.56;1602639;87;21357;-90
2022/01/28 05:42:12;;;;;;;36.95;19.75;;;;;;;-4.47;100.00;100775.53;1602106;87;21619;-89
2022/01/28 05:44:39;;;;;;;42.67;22.37;;;;;;;-4.47;100.00;100779.34;1615068;87;21075;-90
2022/01/28 05:47:06;;;;;;;38.42;20.23;;;;;;;-4.48;100.00;100801.41;1595200;88;21125;-90
2022/01/28 05:49:35;;;;;;;40.12;20.35;;;;;;;-4.44;100.00;100785.69;1603447;86;21034;-92
2022/01/28 05:52:03;;;;;;;39.92;22.02;;;;;;;-4.43;100.00;100786.10;1603947;87;21229;-92
2022/01/28 05:54:30;;;;;;;36.63;19.82;;;;;;;-4.37;100.00;100787.30;1580634;89;21015;-90
2022/01/28 05:56:57;;;;;;;39.63;20.92;;;;;;;-4.34;100.00;100778.80;1581806;89;21559;-90
2022/01/28 05:59:24;;;;;;;37.15;20.72;;;;;;;-4.31;100.00;100773.69;1581307;89;21172;-90
2022/01/28 06:01:51;;;;;;;40.20;22.40;;;;;;;-4.28;100.00;100773.22;1602796;89;21611;-92
2022/01/28 06:04:21;;;;;;;43.65;21.77;;;;;;;-4.29;100.00;100767.72;1602759;89;21157;-90
2022/01/28 06:06:47;;;;;;;39.33;21.75;;;;;;;-4.30;100.00;100762.66;1618945;86;21034;-93
2022/01/28 06:09:15;;;;;;;37.95;21.05;;;;;;;-4.30;100.00;100763.94;1685540;84;21002;-94
2022/01/28 06:11:45;;;;;;;36.23;20.35;;;;;;;-4.32;100.00;100807.59;1685889;84;21126;-91
2022/01/28 06:14:11;;;;;;;35.73;18.80;;;;;;;-4.32;100.00;100785.98;1647492;85;21057;-91
2022/01/28 06:16:39;;;;;;;38.55;20.12;;;;;;;-4.31;100.00;100787.23;1685932;83;21100;-90
2022/01/28 06:19:06;;;;;;;36.25;20.10;;;;;;;-4.28;100.00;100777.45;1686137;83;21659;-91
2022/01/28 06:21:33;;;;;;;39.70;21.40;;;;;;;-4.27;100.00;100780.41;1685986;84;21137;-91
2022/01/28 06:24:00;;;;;;;38.08;19.70;;;;;;;-4.28;100.00;100772.36;1686831;84;21650;-91
2022/01/28 06:26:27;;;;;;;35.30;20.70;;;;;;;-4.27;100.00;100784.22;1696310;83;21492;-91
2022/01/28 06:28:54;;;;;;;40.08;20.82;;;;;;;-4.21;100.00;100774.42;1691059;84;21119;-90
2022/01/28 06:31:21;;;;;;;33.25;19.23;;;;;;;-4.20;100.00;100765.49;1643847;87;22072;-92
2022/01/28 06:33:49;;;;;;;36.53;19.60;;;;;;;-4.19;100.00;100762.09;1662829;85;21073;-89
2022/01/28 06:36:16;;;;;;;37.67;19.65;;;;;;;-4.16;100.00;100763.34;1657257;85;21547;-89
2022/01/28 06:38:44;;;;;;;40.73;20.92;;;;;;;-4.13;100.00;100755.66;1684991;84;21030;-89
2022/01/28 06:41:11;;;;;;;37.78;20.90;;;;;;;-4.12;100.00;100757.34;1640501;87;21148;-91
2022/01/28 06:43:39;;;;;;;37.00;19.00;;;;;;;-4.09;100.00;100755.22;1684015;84;21054;-92
2022/01/28 06:46:06;;;;;;;39.25;20.45;;;;;;;-4.08;100.00;100757.31;1640639;87;21141;-93
2022/01/28 06:48:35;;;;;;;37.58;20.25;;;;;;;-4.07;100.00;100757.73;1683653;84;21048;-93
2022/01/28 06:51:02;;;;;;;34.67;20.08;;;;;;;-4.06;100.00;100758.15;1640669;87;21051;-94
2022/01/28 06:53:29;;;;;;;37.40;20.57;;;;;;;-4.05;100.00;100761.11;1683582;85;21862;-89
2022/01/28 06:55:56;;;;;;;32.90;18.45;;;;;;;-4.03;100.00;100767.00;1621796;87;21074;-95
2022/01/28 06:58:23;;;;;;;36.60;20.08;;;;;;;-4.03;100.00;100761.91;1683645;83;21084;-94
2022/01/28 07:00:50;;;;;;;34.20;19.50;;;;;;;-4.02;100.00;100764.45;1640614;87;21130;-94
2022/01/28 07:03:17;;;;;;;38.55;20.68;;;;;;;-3.97;100.00;100770.76;1660176;83;21744;-93
2022/01/28 07:05:45;;;;;;;39.05;20.37;;;;;;;-3.93;100.00;100767.30;1683107;84;21822;-94
2022/01/28 07:08:12;;;;;;;35.55;19.57;;;;;;;-3.90;100.00;100766.00;1677978;84;21003;-93
2022/01/28 07:10:39;;;;;;;33.73;18.57;;;;;;;-3.85;100.00;100769.77;1677999;84;21468;-93
2022/01/28 07:13:06;;;;;;;38.10;19.15;;;;;;;-3.80;100.00;100769.27;1657225;85;21081;-93
2022/01/28 07:15:33;;;;;;;37.38;19.15;;;;;;;-3.77;100.00;100765.41;1677985;84;21102;-92
2022/01/28 07:18:03;;;;;;;38.90;20.32;;;;;;;-3.73;100.00;100767.04;1677947;85;21139;-91
2022/01/28 07:20:32;;;;;;;39.63;21.20;;;;;;;-3.69;100.00;100767.84;1657299;85;21508;-92
2022/01/28 07:22:59;;;;;;;43.02;23.18;;;;;;;-3.66;100.00;100774.17;1635481;85;21070;-92
2022/01/28 07:25:26;;;;;;;47.23;24.18;;;;;;;-3.60;100.00;100773.22;1678422;83;21080;-92
2022/01/28 07:27:53;;;;;;;46.13;24.05;;;;;;;-3.58;100.00;100781.69;1678332;85;21056;-91
2022/01/28 07:30:20;;;;;;;44.08;23.60;;;;;;;-3.55;100.00;100782.94;1681820;84;21111;-90
2022/01/28 07:32:49;;;;;;;45.78;24.87;;;;;;;-3.54;100.00;100779.08;1657603;84;21090;-92
2022/01/28 07:35:17;;;;;;;50.52;25.27;;;;;;;-3.50;100.00;100774.78;1681376;83;21076;-92
2022/01/28 07:37:43;;;;;;;49.85;26.27;;;;;;;-3.44;100.00;100775.14;1683444;83;21045;-91
2022/01/28 07:40:12;;;;;;;47.67;26.40;;;;;;;-3.42;100.00;100769.59;1684194;84;21109;-91
2022/01/28 07:42:40;;;;;;;54.55;28.12;;;;;;;-3.42;100.00;100760.69;1683780;83;21978;-93
2022/01/28 07:45:11;;;;;;;46.95;25.97;;;;;;;-3.43;100.00;100755.18;1678909;84;20959;-93
2022/01/28 07:47:38;;;;;;;55.15;27.65;;;;;;;-3.42;100.00;100746.23;1675034;84;22031;-92
2022/01/28 07:50:09;;;;;;;48.48;26.68;;;;;;;-3.39;100.00;100745.34;1678231;84;21129;-92
2022/01/28 07:52:36;;;;;;;52.17;26.87;;;;;;;-3.36;100.00;100745.30;1677700;85;21101;-91
2022/01/28 07:55:06;;;;;;;45.73;25.62;;;;;;;-3.34;100.00;100746.96;1678133;84;21137;-92
2022/01/28 07:57:34;;;;;;;46.58;24.82;;;;;;;-3.29;100.00;100740.52;1657457;83;21033;-92
2022/01/28 08:00:03;;;;;;;48.35;26.20;;;;;;;-3.25;100.00;100738.36;1683970;85;21105;-92
2022/01/28 08:02:32;;;;;;;47.90;26.57;;;;;;;-3.22;100.00;100735.73;1655430;85;21080;-92
2022/01/28 08:04:59;;;;;;;42.88;24.43;;;;;;;-3.20;100.00;100734.02;1678053;84;21658;-94
2022/01/28 08:07:26;;;;;;;49.03;27.17;;;;;;;-3.18;100.00;100738.66;1682496;83;21144;-91
2022/01/28 08:09:53;;;;;;;47.53;25.37;;;;;;;-3.15;100.00;100730.54;1688704;82;21077;-89
2022/01/28 08:12:22;;;;;;;45.80;23.60;;;;;;;-3.14;100.00;100725.86;1698673;83;21082;-91
2022/01/28 08:14:50;;;;;;;47.67;25.15;;;;;;;-3.06;100.00;100726.16;1700763;84;21153;-92
2022/01/28 08:17:17;;;;;;;46.08;25.10;;;;;;;-2.96;100.00;100724.28;1698882;83;21020;-93
2022/01/28 08:19:44;;;;;;;45.08;24.15;;;;;;;-2.86;100.00;100725.81;1701098;83;21141;-92
2022/01/28 08:22:11;;;;;;;47.27;25.43;;;;;;;-2.77;100.00;100726.52;1700920;83;21008;-90
2022/01/28 08:24:39;;;;;;;43.80;24.47;;;;;;;-2.74;100.00;100730.27;1700772;83;21063;-89
2022/01/28 08:27:07;;;;;;;47.35;26.12;;;;;;;-2.71;100.00;100730.22;1677583;83;21890;-93
2022/01/28 08:29:34;;;;;;;50.25;26.25;;;;;;;-2.69;100.00;100729.77;1675558;83;21814;-91
2022/01/28 08:32:01;;;;;;;48.23;24.92;;;;;;;-2.69;100.00;100719.57;1702869;82;21095;-91
2022/01/28 08:34:28;;;;;;;44.75;25.48;;;;;;;-2.68;100.00;100718.67;1672927;83;21123;-93
2022/01/28 08:36:56;;;;;;;43.87;23.40;;;;;;;-2.66;100.00;100718.22;1680831;83;22389;-92
2022/01/28 08:39:24;;;;;;;45.90;25.27;;;;;;;-2.62;100.00;100709.66;1696314;83;21084;-92
2022/01/28 08:41:51;;;;;;;51.92;27.07;;;;;;;-2.59;100.00;100713.41;1702603;83;21064;-92
2022/01/28 08:44:18;;;;;;;49.55;26.90;;;;;;;-2.54;100.00;100711.63;1676669;83;21148;-91
2022/01/28 08:46:45;;;;;;;50.70;26.52;;;;;;;-2.53;100.00;100711.18;1701443;84;21018;-93
2022/01/28 08:49:14;;;;;;;48.75;26.68;;;;;;;-2.54;100.00;100707.80;1707031;84;21580;-92
2022/01/28 08:51:41;;;;;;;55.28;27.82;;;;;;;-2.53;100.00;100697.16;1701228;84;21054;-93
2022/01/28 08:54:09;;;;;;;60.40;31.15;;;;;;;-2.51;100.00;100683.09;1701349;83;21546;-91
2022/01/28 08:56:36;;;;;;;58.50;30.52;;;;;;;-2.48;100.00;100676.22;1701508;83;21143;-91
2022/01/28 08:59:04;;;;;;;55.70;32.33;;;;;;;-2.44;100.00;100667.66;1701405;84;21050;-91
2022/01/28 09:01:32;;;;;;;56.45;31.65;;;;;;;-2.40;100.00;100678.63;1701325;83;21141;-90
2022/01/28 09:03:59;;;;;;;59.73;33.50;;;;;;;-2.35;100.00;100676.81;1701209;83;21073;-91
2022/01/28 09:06:26;;;;;;;59.63;31.60;;;;;;;-2.27;100.00;100678.77;1700182;83;21084;-92
2022/01/28 09:08:55;;;;;;;56.23;31.70;;;;;;;-2.24;100.00;100671.48;1643521;85;21610;-92
2022/01/28 09:13:52;;;;;;;54.55;29.12;;;;;;;-2.25;100.00;100661.73;1634451;86;21058;-93
2022/01/28 09:16:21;;;;;;;50.03;26.95;;;;;;;-2.25;100.00;100661.73;1635334;86;21110;-93
2022/01/28 09:18:49;;;;;;;53.73;27.80;;;;;;;-2.25;100.00;100653.25;1618993;87;21050;-89
2022/01/28 09:21:16;;;;;;;50.40;28.42;;;;;;;-2.27;100.00;100655.81;1646256;86;21815;-92
2022/01/28 09:23:46;;;;;;;49.20;27.13;;;;;;;-2.25;100.00;100650.25;1616081;87;21130;-91
2022/01/28 09:26:12;;;;;;;49.38;27.00;;;;;;;-2.23;100.00;100640.86;1638536;86;21077;-90
2022/01/28 09:28:39;;;;;;;47.70;27.42;;;;;;;-2.19;100.00;100639.08;1660572;84;21072;-91
2022/01/28 09:31:06;;;;;;;50.92;27.42;;;;;;;-2.17;100.00;100636.06;1691412;82;21084;-89
2022/01/28 09:33:34;;;;;;;44.30;25.23;;;;;;;-2.15;100.00;100633.47;1684467;84;21164;-90
2022/01/28 09:36:01;;;;;;;50.00;24.40;;;;;;;-2.10;100.00;100633.78;1650381;83;21078;-95
2022/01/28 09:38:30;;;;;;;50.03;27.32;;;;;;;-2.05;100.00;100627.30;1689042;84;21034;-91
2022/01/28 09:41:03;;;;;;;46.63;27.05;;;;;;;-2.03;100.00;100618.32;1635710;85;21067;-91
2022/01/28 09:43:32;;;;;;;50.15;26.80;;;;;;;-1.97;100.00;100617.75;1638567;85;21110;-89
2022/01/28 09:46:00;;;;;;;49.85;28.42;;;;;;;-1.91;100.00;100604.84;1622563;87;21799;-92
2022/01/28 09:48:27;;;;;;;57.30;29.72;;;;;;;-1.83;100.00;100599.98;1643222;86;21106;-90
2022/01/28 09:50:59;;;;;;;47.38;26.82;;;;;;;-1.76;100.00;100598.97;1643197;86;21106;-94
2022/01/28 09:53:27;;;;;;;50.98;28.75;;;;;;;-1.70;100.00;100594.98;1643248;86;21082;-95
2022/01/28 09:55:54;;;;;;;48.52;26.77;;;;;;;-1.62;100.00;100592.25;1641901;84;21679;-93
2022/01/28 09:58:21;;;;;;;47.25;27.42;;;;;;;-1.57;100.00;100589.59;1643070;86;21696;-95
2022/01/28 10:00:48;;;;;;;46.50;26.42;;;;;;;-1.52;100.00;100582.19;1642804;86;21540;-95
2022/01/28 10:03:18;;;;;;;49.15;27.62;;;;;;;-1.53;100.00;100589.89;1643380;87;21098;-94
2022/01/28 10:05:50;;;;;;;49.50;27.42;;;;;;;-1.53;100.00;100583.09;1641473;86;21820;-92
2022/01/28 10:08:26;;;;;;;48.40;27.62;;;;;;;-1.51;100.00;100584.31;1632622;85;21050;-94
2022/01/28 10:11:05;;;;;;;46.25;26.33;;;;;;;-1.49;100.00;100573.63;1605015;86;21141;-93
2022/01/28 10:13:49;;;;;;;50.33;26.73;;;;;;;-1.48;100.00;100577.83;1600623;87;21085;-93
2022/01/28 10:16:20;;;;;;;45.05;25.60;;;;;;;-1.46;100.00;100587.58;1651290;85;21673;-93
2022/01/28 10:18:57;;;;;;;44.20;24.47;;;;;;;-1.41;100.00;100576.83;1616169;85;21551;-95
2022/01/28 10:21:40;;;;;;;44.18;24.92;;;;;;;-1.35;100.00;100585.60;1609744;86;21081;-93
2022/01/28 10:24:18;;;;;;;47.33;25.50;;;;;;;-1.30;100.00;100577.36;1637016;86;21148;-91
2022/01/28 10:27:06;;;;;;;46.28;24.63;;;;;;;-1.22;100.00;100568.23;1669003;83;21058;-91
2022/01/28 10:29:35;;;;;;;49.42;25.55;;;;;;;-1.16;100.00;100563.40;1668788;84;21116;-91
2022/01/28 10:32:07;;;;;;;47.43;27.70;;;;;;;-1.09;100.00;100566.19;1646489;84;21050;-95
2022/01/28 10:34:42;;;;;;;48.95;27.55;;;;;;;-1.04;100.00;100561.77;1609769;87;21090;-94
2022/01/28 10:37:23;;;;;;;44.25;24.67;;;;;;;-0.98;100.00;100561.59;1659408;85;21174;-94
2022/01/28 10:39:58;;;;;;;44.35;26.10;;;;;;;-0.96;100.00;100562.82;1629479;85;21105;-94
2022/01/28 10:42:54;;;;;;;44.75;25.05;;;;;;;-0.96;100.00;100557.28;1632642;85;21154;-93
2022/01/28 10:45:24;;;;;;;47.33;24.98;;;;;;;-0.96;100.00;100552.17;1631028;85;21110;-91
2022/01/28 10:47:57;;;;;;;43.48;24.60;;;;;;;-0.91;100.00;100541.82;1612750;86;21100;-91
2022/01/28 10:50:37;;;;;;;45.43;24.43;;;;;;;-0.89;100.00;100526.00;1628731;85;21847;-92
2022/01/28 10:53:13;;;;;;;47.60;24.30;;;;;;;-0.88;100.00;100521.26;1608720;86;21183;-94
2022/01/28 10:55:48;;;;;;;42.67;24.87;;;;;;;-0.87;100.00;100517.00;1615432;86;21046;-92
2022/01/28 10:58:19;;;;;;;42.85;23.45;;;;;;;-0.85;100.00;100516.52;1622675;86;21119;-89
2022/01/28 11:00:49;;;;;;;39.05;23.32;;;;;;;-0.79;100.00;100502.27;1604216;87;21569;-90
2022/01/28 11:03:20;;;;;;;39.13;23.22;;;;;;;-0.74;100.00;100491.45;1634998;86;21148;-91
2022/01/28 11:05:50;;;;;;;42.38;23.42;;;;;;;-0.68;100.00;100491.26;1627647;86;25734;-93
2022/01/28 11:08:18;;;;;;;38.48;22.25;;;;;;;-0.60;100.00;100490.22;1646007;84;21049;-90
2022/01/28 11:10:45;;;;;;;36.73;21.87;;;;;;;-0.54;100.00;100482.34;1629049;86;21070;-93
2022/01/28 11:13:13;;;;;;;36.70;22.42;;;;;;;-0.52;100.00;100482.69;1668040;85;20980;-89
2022/01/28 11:15:40;;;;;;;34.88;20.45;;;;;;;-0.49;100.00;100479.19;1642203;85;21992;-94
2022/01/28 11:18:09;;;;;;;34.23;20.62;;;;;;;-0.40;100.00;100480.64;1652055;85;21963;-91
2022/01/28 11:20:48;;;;;;;34.15;19.12;;;;;;;-0.36;100.00;100467.67;1646984;86;21062;-90
2022/01/28 11:23:49;;;;;;;35.03;20.55;;;;;;;-0.39;100.00;100473.34;1655004;84;21116;-90
2022/01/28 11:26:21;;;;;;;41.45;22.22;;;;;;;-0.45;100.00;100464.16;1640238;87;21071;-89
2022/01/28 11:28:55;;;;;;;31.60;20.43;;;;;;;-0.53;100.00;100463.56;1643264;86;21560;-89
2022/01/28 11:31:50;;;;;;;35.75;21.33;;;;;;;-0.60;100.00;100455.69;1642999;86;21039;-90
2022/01/28 11:34:28;;;;;;;34.40;19.52;;;;;;;-0.66;100.00;100453.69;1628584;85;21533;-91
2022/01/28 11:37:15;;;;;;;44.40;23.20;;;;;;;-0.69;100.00;100442.72;1636419;85;21084;-90
2022/01/28 11:39:46;;;;;;;49.45;26.40;;;;;;;-0.75;100.00;100439.91;1635158;85;21193;-91
2022/01/28 11:42:25;;;;;;;96.15;39.98;;;;;;;-0.81;100.00;100440.95;1640135;85;21136;-92
2022/01/28 11:44:59;;;;;;;83.73;33.00;;;;;;;-0.87;100.00;100435.19;1608036;87;21122;-94
2022/01/28 11:47:33;;;;;;;71.55;27.60;;;;;;;-0.89;100.00;100429.27;1623083;87;21498;-93
2022/01/28 11:50:13;;;;;;;103.10;37.30;;;;;;;-0.93;100.00;100424.70;1628590;86;21176;-93
2022/01/28 11:52:48;;;;;;;86.53;32.98;;;;;;;-0.96;100.00;100417.11;1615563;87;21111;-89
2022/01/28 11:55:21;;;;;;;71.22;30.27;;;;;;;-0.96;100.00;100412.85;1607864;87;21095;-94
2022/01/28 11:58:11;;;;;;;57.55;25.90;;;;;;;-0.96;100.00;100405.61;1627819;86;21101;-95
2022/01/28 12:00:53;;;;;;;94.85;35.20;;;;;;;-0.98;100.00;100401.83;1628754;86;21061;-92
2022/01/28 12:03:22;;;;;;;75.90;31.20;;;;;;;-0.99;100.00;100406.54;1628360;88;20994;-91
2022/01/28 12:05:54;;;;;;;83.33;32.78;;;;;;;-0.99;100.00;100398.05;1624401;86;21834;-90
2022/01/28 12:08:31;;;;;;;132.03;45.85;;;;;;;-0.97;100.00;100396.30;1637342;86;21155;-92
2022/01/28 12:11:03;;;;;;;140.28;41.88;;;;;;;-0.93;100.00;100402.14;1656114;84;21089;-94
2022/01/28 12:13:34;;;;;;;125.85;35.23;;;;;;;-0.91;100.00;100400.35;1646029;84;21126;-91
2022/01/28 12:16:12;;;;;;;;;;;;;;;-0.89;100.00;100396.04;1645494;84;21588;-95
2022/01/28 12:18:54;;;;;;;124.60;31.82;;;;;;;-0.85;100.00;100404.02;1638236;86;20497;-93
2022/01/28 12:21:24;;;;;;;;;;;;;;;-0.87;100.00;100400.22;1659538;83;21676;-95
2022/01/28 12:23:54;;;;;;;137.10;35.75;;;;;;;-0.89;100.00;100398.59;1642695;85;20161;-95
2022/01/28 12:26:22;;;;;;;224.25;47.17;;;;;;;-0.90;100.00;100395.64;1695812;84;21071;-94
2022/01/28 12:28:52;;;;;;;97.42;28.55;;;;;;;-0.92;100.00;100395.70;1695803;83;21364;-95
2022/01/28 12:31:31;;;;;;;65.80;26.12;;;;;;;-0.91;100.00;100397.80;1673618;84;21085;-96
2022/01/28 12:34:04;;;;;;;57.03;23.62;;;;;;;-0.91;100.00;100406.75;1668258;85;21737;-93
2022/01/28 12:36:35;;;;;;;44.38;23.67;;;;;;;-0.91;100.00;100402.48;1648769;86;21075;-96